Pas de pilote en ligne...

Compagnie Fsx-France ! Un nouveau look pour votre VA, par : Julien & Co

 METAR ET TAF INFORMATION
METAR FOR LIEO :
LIEO 210450Z VRB02KT CAVOK 23/20 Q1015

 AÉROPORT DE AÉROPORT

 INFORMATIONS DE PISTE
Piste 05 Longueur de la piste 2446 m = 8025 ft Largeur de la piste 45 m = 148 ft
Élévation de la piste 35 ft Seuil de la piste déplacés 805 ft Runway heading 53
Piste 23 Longueur de la piste 2446 m = 8025 ft Largeur de la piste 45 m = 148 ft
Élévation de la piste 19 ft Seuil de la piste déplacés 495 ft Runway heading 233
 AÉROPORT FRÉQUENCES
Type APP Nom OLBIA RADA Féquence 125.95 MHZ
Type ATIS Nom ATIS Féquence 113.9 MHZ
Type TWR Nom OLBIA TWR Féquence 118.975 MHZ

 AIDES A LA NAVIGATION
Type VOR-DME Nom Olbia Costa Smeralda Féquence 113900 KHZ
Type NDB Nom Olbia Costa Smeralda Féquence 357 KHZ